Terminal Aerodrome Forecast
Issued by NWS Billings, MT

Home | Current Version | Previous Version | Text Only | Print | Product List | Glossary On
Versions: 1 2 3 4 5 6 7 8 9 10 11 12 13 14 15 16 17 18 19 20 21 22 23 24
000
FTUS45 KBYZ 242320
TAFBIL
TAF
KBIL 242320Z 2500/2524 20013G21KT P6SM SCT250
     FM250500 25011KT P6SM VCSH BKN060
     FM251100 28011KT 6SM -SHRA BKN060
     FM251600 VRB06KT 6SM -SHRA SCT060 BKN100=

USA.gov is the U.S. government's official web portal to all federal, state and local government web resources and services.